sensor_id;sensor_type;location;lat;lon;timestamp;temperature;humidity
19680;DHT22;9989;48.962;9.182;2023-02-05T00:00:30;5.40;99.90
19680;DHT22;9989;48.962;9.182;2023-02-05T00:02:55;5.40;99.90
19680;DHT22;9989;48.962;9.182;2023-02-05T00:05:21;5.40;99.90
19680;DHT22;9989;48.962;9.182;2023-02-05T00:07:47;5.40;99.90
19680;DHT22;9989;48.962;9.182;2023-02-05T00:10:12;5.40;99.90
19680;DHT22;9989;48.962;9.182;2023-02-05T00:12:38;5.40;99.90
19680;DHT22;9989;48.962;9.182;2023-02-05T00:15:04;5.40;99.90
19680;DHT22;9989;48.962;9.182;2023-02-05T00:17:30;5.40;99.90
19680;DHT22;9989;48.962;9.182;2023-02-05T00:19:56;5.40;99.90
19680;DHT22;9989;48.962;9.182;2023-02-05T00:22:21;5.50;99.90
19680;DHT22;9989;48.962;9.182;2023-02-05T00:24:47;5.50;99.90
19680;DHT22;9989;48.962;9.182;2023-02-05T00:27:15;5.40;99.90
19680;DHT22;9989;48.962;9.182;2023-02-05T00:29:40;5.50;99.90
19680;DHT22;9989;48.962;9.182;2023-02-05T00:32:06;5.50;99.90
19680;DHT22;9989;48.962;9.182;2023-02-05T00:34:31;5.40;99.90
19680;DHT22;9989;48.962;9.182;2023-02-05T00:36:57;5.40;99.90
19680;DHT22;9989;48.962;9.182;2023-02-05T00:39:23;5.40;99.90
19680;DHT22;9989;48.962;9.182;2023-02-05T00:41:49;5.50;99.90
19680;DHT22;9989;48.962;9.182;2023-02-05T00:44:14;5.50;99.90
19680;DHT22;9989;48.962;9.182;2023-02-05T00:46:40;5.50;99.90
19680;DHT22;9989;48.962;9.182;2023-02-05T00:49:05;5.50;99.90
19680;DHT22;9989;48.962;9.182;2023-02-05T00:51:31;5.50;99.90
19680;DHT22;9989;48.962;9.182;2023-02-05T00:53:58;5.50;99.90
19680;DHT22;9989;48.962;9.182;2023-02-05T00:56:24;5.40;99.90
19680;DHT22;9989;48.962;9.182;2023-02-05T00:58:49;5.40;99.90
19680;DHT22;9989;48.962;9.182;2023-02-05T01:01:16;5.50;99.90
19680;DHT22;9989;48.962;9.182;2023-02-05T01:03:42;5.50;99.90
19680;DHT22;9989;48.962;9.182;2023-02-05T01:06:09;5.50;99.90
19680;DHT22;9989;48.962;9.182;2023-02-05T01:08:35;5.50;99.90
19680;DHT22;9989;48.962;9.182;2023-02-05T01:11:04;5.50;99.90
19680;DHT22;9989;48.962;9.182;2023-02-05T01:13:30;5.50;99.90
19680;DHT22;9989;48.962;9.182;2023-02-05T01:15:55;5.50;99.90
19680;DHT22;9989;48.962;9.182;2023-02-05T01:18:21;5.50;99.90
19680;DHT22;9989;48.962;9.182;2023-02-05T01:20:47;5.50;99.90
19680;DHT22;9989;48.962;9.182;2023-02-05T01:23:12;5.50;99.90
19680;DHT22;9989;48.962;9.182;2023-02-05T01:25:38;5.50;99.90
19680;DHT22;9989;48.962;9.182;2023-02-05T01:28:04;5.50;99.90
19680;DHT22;9989;48.962;9.182;2023-02-05T01:30:31;5.50;99.90
19680;DHT22;9989;48.962;9.182;2023-02-05T01:32:57;5.50;99.90
19680;DHT22;9989;48.962;9.182;2023-02-05T01:35:23;5.50;99.90
19680;DHT22;9989;48.962;9.182;2023-02-05T01:37:49;5.50;99.90
19680;DHT22;9989;48.962;9.182;2023-02-05T01:40:15;5.60;99.90
19680;DHT22;9989;48.962;9.182;2023-02-05T01:42:41;5.60;99.90
19680;DHT22;9989;48.962;9.182;2023-02-05T01:47:56;5.60;99.90
19680;DHT22;9989;48.962;9.182;2023-02-05T01:50:36;5.60;99.90
19680;DHT22;9989;48.962;9.182;2023-02-05T01:53:15;5.60;99.90
19680;DHT22;9989;48.962;9.182;2023-02-05T01:55:51;5.60;99.90
19680;DHT22;9989;48.962;9.182;2023-02-05T01:58:18;5.60;99.90
19680;DHT22;9989;48.962;9.182;2023-02-05T02:00:44;5.60;99.90
19680;DHT22;9989;48.962;9.182;2023-02-05T02:03:13;5.60;99.90
19680;DHT22;9989;48.962;9.182;2023-02-05T02:05:39;5.60;99.90
19680;DHT22;9989;48.962;9.182;2023-02-05T02:08:04;5.60;99.90
19680;DHT22;9989;48.962;9.182;2023-02-05T02:10:31;5.60;99.90
19680;DHT22;9989;48.962;9.182;2023-02-05T02:12:58;5.60;99.90
19680;DHT22;9989;48.962;9.182;2023-02-05T02:15:25;5.60;99.90
19680;DHT22;9989;48.962;9.182;2023-02-05T02:17:55;5.60;99.90
19680;DHT22;9989;48.962;9.182;2023-02-05T02:20:41;5.60;99.90
19680;DHT22;9989;48.962;9.182;2023-02-05T02:23:25;5.50;99.90
19680;DHT22;9989;48.962;9.182;2023-02-05T02:29:01;5.50;99.90
19680;DHT22;9989;48.962;9.182;2023-02-05T02:31:35;5.50;99.90
19680;DHT22;9989;48.962;9.182;2023-02-05T02:34:14;5.40;99.90
19680;DHT22;9989;48.962;9.182;2023-02-05T02:36:54;5.40;99.90
19680;DHT22;9989;48.962;9.182;2023-02-05T02:39:27;5.40;99.90
19680;DHT22;9989;48.962;9.182;2023-02-05T02:47:10;5.40;99.90
19680;DHT22;9989;48.962;9.182;2023-02-05T02:49:40;5.50;99.90
19680;DHT22;9989;48.962;9.182;2023-02-05T02:52:12;5.50;99.90
19680;DHT22;9989;48.962;9.182;2023-02-05T02:54:40;5.50;99.90
19680;DHT22;9989;48.962;9.182;2023-02-05T02:57:09;5.50;99.90
19680;DHT22;9989;48.962;9.182;2023-02-05T02:59:38;5.50;99.90
19680;DHT22;9989;48.962;9.182;2023-02-05T03:02:08;5.50;99.90
19680;DHT22;9989;48.962;9.182;2023-02-05T03:04:40;5.50;99.90
19680;DHT22;9989;48.962;9.182;2023-02-05T03:07:19;5.50;99.90
19680;DHT22;9989;48.962;9.182;2023-02-05T03:10:00;5.50;99.90
19680;DHT22;9989;48.962;9.182;2023-02-05T03:12:27;5.50;99.90
19680;DHT22;9989;48.962;9.182;2023-02-05T03:14:53;5.50;99.90
19680;DHT22;9989;48.962;9.182;2023-02-05T03:17:21;5.50;99.90
19680;DHT22;9989;48.962;9.182;2023-02-05T03:20:03;5.40;99.90
19680;DHT22;9989;48.962;9.182;2023-02-05T03:22:30;5.50;99.90
19680;DHT22;9989;48.962;9.182;2023-02-05T03:24:56;5.50;99.90
19680;DHT22;9989;48.962;9.182;2023-02-05T03:27:22;5.40;99.90
19680;DHT22;9989;48.962;9.182;2023-02-05T03:29:48;5.40;99.90
19680;DHT22;9989;48.962;9.182;2023-02-05T03:32:35;5.40;99.90
19680;DHT22;9989;48.962;9.182;2023-02-05T03:35:13;5.40;99.90
19680;DHT22;9989;48.962;9.182;2023-02-05T03:40:49;5.40;99.90
19680;DHT22;9989;48.962;9.182;2023-02-05T03:43:27;5.40;99.90
19680;DHT22;9989;48.962;9.182;2023-02-05T03:46:21;5.30;99.90
19680;DHT22;9989;48.962;9.182;2023-02-05T03:57:17;5.10;99.90
19680;DHT22;9989;48.962;9.182;2023-02-05T03:59:47;5.00;99.90
19680;DHT22;9989;48.962;9.182;2023-02-05T04:02:14;5.00;99.90
19680;DHT22;9989;48.962;9.182;2023-02-05T04:04:40;5.00;99.90
19680;DHT22;9989;48.962;9.182;2023-02-05T04:07:06;5.00;99.90
19680;DHT22;9989;48.962;9.182;2023-02-05T04:09:31;5.00;99.90
19680;DHT22;9989;48.962;9.182;2023-02-05T04:11:57;4.90;99.90
19680;DHT22;9989;48.962;9.182;2023-02-05T04:14:23;5.00;99.90
19680;DHT22;9989;48.962;9.182;2023-02-05T04:16:48;4.90;99.90
19680;DHT22;9989;48.962;9.182;2023-02-05T04:19:14;4.90;99.90
19680;DHT22;9989;48.962;9.182;2023-02-05T04:21:39;4.80;99.90
19680;DHT22;9989;48.962;9.182;2023-02-05T04:24:05;4.80;99.90
19680;DHT22;9989;48.962;9.182;2023-02-05T04:26:31;4.80;99.90
19680;DHT22;9989;48.962;9.182;2023-02-05T04:28:57;4.80;99.90
19680;DHT22;9989;48.962;9.182;2023-02-05T04:31:22;4.80;99.90
19680;DHT22;9989;48.962;9.182;2023-02-05T04:33:49;4.70;99.90
19680;DHT22;9989;48.962;9.182;2023-02-05T04:36:14;4.70;99.90
19680;DHT22;9989;48.962;9.182;2023-02-05T04:38:40;4.70;99.90
19680;DHT22;9989;48.962;9.182;2023-02-05T04:41:06;4.70;99.90
19680;DHT22;9989;48.962;9.182;2023-02-05T04:43:33;4.80;99.90
19680;DHT22;9989;48.962;9.182;2023-02-05T04:46:07;4.80;99.90
19680;DHT22;9989;48.962;9.182;2023-02-05T04:48:34;4.80;99.90
19680;DHT22;9989;48.962;9.182;2023-02-05T04:51:04;4.80;99.90
19680;DHT22;9989;48.962;9.182;2023-02-05T04:53:29;4.80;99.90
19680;DHT22;9989;48.962;9.182;2023-02-05T04:56:10;4.80;99.90
19680;DHT22;9989;48.962;9.182;2023-02-05T04:58:36;4.80;99.90
19680;DHT22;9989;48.962;9.182;2023-02-05T05:01:02;4.80;99.90
19680;DHT22;9989;48.962;9.182;2023-02-05T05:03:28;4.80;99.90
19680;DHT22;9989;48.962;9.182;2023-02-05T05:05:54;4.80;99.90
19680;DHT22;9989;48.962;9.182;2023-02-05T05:08:20;4.80;99.90
19680;DHT22;9989;48.962;9.182;2023-02-05T05:10:47;4.70;99.90
19680;DHT22;9989;48.962;9.182;2023-02-05T05:13:13;4.70;99.90
19680;DHT22;9989;48.962;9.182;2023-02-05T05:15:39;4.70;99.90
19680;DHT22;9989;48.962;9.182;2023-02-05T05:18:05;4.80;99.90
19680;DHT22;9989;48.962;9.182;2023-02-05T05:20:30;4.80;99.90
19680;DHT22;9989;48.962;9.182;2023-02-05T05:22:56;4.90;99.90
19680;DHT22;9989;48.962;9.182;2023-02-05T05:25:22;4.90;99.90
19680;DHT22;9989;48.962;9.182;2023-02-05T05:27:48;4.90;99.90
19680;DHT22;9989;48.962;9.182;2023-02-05T05:30:13;4.90;99.90
19680;DHT22;9989;48.962;9.182;2023-02-05T05:32:39;4.90;99.90
19680;DHT22;9989;48.962;9.182;2023-02-05T05:35:05;4.90;99.90
19680;DHT22;9989;48.962;9.182;2023-02-05T05:37:31;5.00;99.90
19680;DHT22;9989;48.962;9.182;2023-02-05T05:39:56;5.00;99.90
19680;DHT22;9989;48.962;9.182;2023-02-05T05:42:42;5.00;99.90
19680;DHT22;9989;48.962;9.182;2023-02-05T05:45:26;5.00;99.90
19680;DHT22;9989;48.962;9.182;2023-02-05T05:47:53;5.00;99.90
19680;DHT22;9989;48.962;9.182;2023-02-05T05:50:20;5.00;99.90
19680;DHT22;9989;48.962;9.182;2023-02-05T05:52:49;5.00;99.90
19680;DHT22;9989;48.962;9.182;2023-02-05T05:55:14;5.00;99.90
19680;DHT22;9989;48.962;9.182;2023-02-05T05:57:40;4.90;99.90
19680;DHT22;9989;48.962;9.182;2023-02-05T06:00:06;5.00;99.90
19680;DHT22;9989;48.962;9.182;2023-02-05T06:02:32;4.90;99.90
19680;DHT22;9989;48.962;9.182;2023-02-05T06:04:57;5.00;99.90
19680;DHT22;9989;48.962;9.182;2023-02-05T06:07:24;5.00;99.90
19680;DHT22;9989;48.962;9.182;2023-02-05T06:09:50;4.90;99.90
19680;DHT22;9989;48.962;9.182;2023-02-05T06:12:15;4.90;99.90
19680;DHT22;9989;48.962;9.182;2023-02-05T06:14:42;4.90;99.90
19680;DHT22;9989;48.962;9.182;2023-02-05T06:17:07;4.80;99.90
19680;DHT22;9989;48.962;9.182;2023-02-05T06:19:33;4.80;99.90
19680;DHT22;9989;48.962;9.182;2023-02-05T06:21:59;4.80;99.90
19680;DHT22;9989;48.962;9.182;2023-02-05T06:24:25;4.80;99.90
19680;DHT22;9989;48.962;9.182;2023-02-05T06:26:50;4.80;99.90
19680;DHT22;9989;48.962;9.182;2023-02-05T06:29:16;4.80;99.90
19680;DHT22;9989;48.962;9.182;2023-02-05T06:31:41;4.80;99.90
19680;DHT22;9989;48.962;9.182;2023-02-05T06:34:07;4.80;99.90
19680;DHT22;9989;48.962;9.182;2023-02-05T06:36:33;4.80;99.90
19680;DHT22;9989;48.962;9.182;2023-02-05T06:38:58;4.90;99.90
19680;DHT22;9989;48.962;9.182;2023-02-05T06:41:24;4.90;99.90
19680;DHT22;9989;48.962;9.182;2023-02-05T06:43:49;4.90;99.90
19680;DHT22;9989;48.962;9.182;2023-02-05T06:46:16;5.00;99.90
19680;DHT22;9989;48.962;9.182;2023-02-05T06:48:42;4.90;99.90
19680;DHT22;9989;48.962;9.182;2023-02-05T06:51:07;5.00;99.90
19680;DHT22;9989;48.962;9.182;2023-02-05T06:53:33;5.00;99.90
19680;DHT22;9989;48.962;9.182;2023-02-05T06:55:58;5.00;99.90
19680;DHT22;9989;48.962;9.182;2023-02-05T06:58:24;5.00;99.90
19680;DHT22;9989;48.962;9.182;2023-02-05T07:00:50;5.00;99.90
19680;DHT22;9989;48.962;9.182;2023-02-05T07:03:17;5.00;99.90
19680;DHT22;9989;48.962;9.182;2023-02-05T07:05:42;5.00;99.90
19680;DHT22;9989;48.962;9.182;2023-02-05T07:08:08;5.00;99.90
19680;DHT22;9989;48.962;9.182;2023-02-05T07:10:34;5.00;99.90
19680;DHT22;9989;48.962;9.182;2023-02-05T07:12:59;5.00;99.90
19680;DHT22;9989;48.962;9.182;2023-02-05T07:15:27;5.00;99.90
19680;DHT22;9989;48.962;9.182;2023-02-05T07:17:52;5.10;99.90
19680;DHT22;9989;48.962;9.182;2023-02-05T07:20:18;5.10;99.90
19680;DHT22;9989;48.962;9.182;2023-02-05T07:22:44;5.10;99.90
19680;DHT22;9989;48.962;9.182;2023-02-05T07:25:11;5.10;99.90
19680;DHT22;9989;48.962;9.182;2023-02-05T07:27:37;5.10;99.90
19680;DHT22;9989;48.962;9.182;2023-02-05T07:30:03;5.10;99.90
19680;DHT22;9989;48.962;9.182;2023-02-05T07:32:31;5.10;99.90
19680;DHT22;9989;48.962;9.182;2023-02-05T07:34:56;5.10;99.90
19680;DHT22;9989;48.962;9.182;2023-02-05T07:37:22;5.10;99.90
19680;DHT22;9989;48.962;9.182;2023-02-05T07:39:47;5.10;99.90
19680;DHT22;9989;48.962;9.182;2023-02-05T07:42:13;5.10;99.90
19680;DHT22;9989;48.962;9.182;2023-02-05T07:44:39;5.10;99.90
19680;DHT22;9989;48.962;9.182;2023-02-05T07:47:04;5.10;99.90
19680;DHT22;9989;48.962;9.182;2023-02-05T07:49:30;5.10;99.90
19680;DHT22;9989;48.962;9.182;2023-02-05T07:51:57;5.10;99.90
19680;DHT22;9989;48.962;9.182;2023-02-05T07:54:22;5.10;99.90
19680;DHT22;9989;48.962;9.182;2023-02-05T07:56:49;5.10;99.90
19680;DHT22;9989;48.962;9.182;2023-02-05T07:59:14;5.10;99.90
19680;DHT22;9989;48.962;9.182;2023-02-05T08:01:40;5.20;99.90
19680;DHT22;9989;48.962;9.182;2023-02-05T08:04:05;5.20;99.90
19680;DHT22;9989;48.962;9.182;2023-02-05T08:06:32;5.30;99.90
19680;DHT22;9989;48.962;9.182;2023-02-05T08:08:58;5.40;99.90
19680;DHT22;9989;48.962;9.182;2023-02-05T08:11:23;5.40;99.90
19680;DHT22;9989;48.962;9.182;2023-02-05T08:13:49;5.40;99.90
19680;DHT22;9989;48.962;9.182;2023-02-05T08:16:15;5.40;99.90
19680;DHT22;9989;48.962;9.182;2023-02-05T08:18:41;5.40;99.90
19680;DHT22;9989;48.962;9.182;2023-02-05T08:21:07;5.40;99.90
19680;DHT22;9989;48.962;9.182;2023-02-05T08:23:33;5.40;99.90
19680;DHT22;9989;48.962;9.182;2023-02-05T08:25:59;5.50;99.90
19680;DHT22;9989;48.962;9.182;2023-02-05T08:28:26;5.50;99.90
19680;DHT22;9989;48.962;9.182;2023-02-05T08:30:52;5.50;99.90
19680;DHT22;9989;48.962;9.182;2023-02-05T08:33:18;5.50;99.90
19680;DHT22;9989;48.962;9.182;2023-02-05T08:35:44;5.60;99.90
19680;DHT22;9989;48.962;9.182;2023-02-05T08:38:09;5.60;99.90
19680;DHT22;9989;48.962;9.182;2023-02-05T08:40:35;5.60;99.90
19680;DHT22;9989;48.962;9.182;2023-02-05T08:43:01;5.60;99.90
19680;DHT22;9989;48.962;9.182;2023-02-05T08:45:29;5.70;99.90
19680;DHT22;9989;48.962;9.182;2023-02-05T08:47:55;5.70;99.90
19680;DHT22;9989;48.962;9.182;2023-02-05T08:50:21;5.70;99.90
19680;DHT22;9989;48.962;9.182;2023-02-05T08:52:47;5.80;99.90
19680;DHT22;9989;48.962;9.182;2023-02-05T08:55:14;5.80;99.90
19680;DHT22;9989;48.962;9.182;2023-02-05T08:57:42;5.80;99.90
19680;DHT22;9989;48.962;9.182;2023-02-05T09:00:10;5.90;99.90
19680;DHT22;9989;48.962;9.182;2023-02-05T09:02:35;5.90;99.90
19680;DHT22;9989;48.962;9.182;2023-02-05T09:05:01;5.90;99.90
19680;DHT22;9989;48.962;9.182;2023-02-05T09:07:27;5.90;99.90
19680;DHT22;9989;48.962;9.182;2023-02-05T09:09:52;5.90;99.90
19680;DHT22;9989;48.962;9.182;2023-02-05T09:12:18;5.90;99.90
19680;DHT22;9989;48.962;9.182;2023-02-05T09:14:43;5.90;99.90
19680;DHT22;9989;48.962;9.182;2023-02-05T09:17:10;5.80;99.90
19680;DHT22;9989;48.962;9.182;2023-02-05T09:19:39;5.70;99.90
19680;DHT22;9989;48.962;9.182;2023-02-05T09:22:06;5.70;99.90
19680;DHT22;9989;48.962;9.182;2023-02-05T09:24:32;5.70;99.90
19680;DHT22;9989;48.962;9.182;2023-02-05T09:26:58;5.70;99.90
19680;DHT22;9989;48.962;9.182;2023-02-05T09:29:24;5.70;99.90
19680;DHT22;9989;48.962;9.182;2023-02-05T09:31:49;5.70;99.90
19680;DHT22;9989;48.962;9.182;2023-02-05T09:34:15;5.70;99.90
19680;DHT22;9989;48.962;9.182;2023-02-05T09:36:41;5.70;99.90
19680;DHT22;9989;48.962;9.182;2023-02-05T09:39:07;5.70;99.90
19680;DHT22;9989;48.962;9.182;2023-02-05T09:52:37;5.80;99.90
19680;DHT22;9989;48.962;9.182;2023-02-05T09:55:09;5.80;99.90
19680;DHT22;9989;48.962;9.182;2023-02-05T09:57:38;5.90;99.90
19680;DHT22;9989;48.962;9.182;2023-02-05T10:00:18;5.90;99.90
19680;DHT22;9989;48.962;9.182;2023-02-05T10:05:33;6.00;99.90
19680;DHT22;9989;48.962;9.182;2023-02-05T10:08:24;6.00;99.90
19680;DHT22;9989;48.962;9.182;2023-02-05T10:10:52;6.00;99.90
19680;DHT22;9989;48.962;9.182;2023-02-05T10:13:35;6.00;99.90
19680;DHT22;9989;48.962;9.182;2023-02-05T10:24:43;6.10;99.90
19680;DHT22;9989;48.962;9.182;2023-02-05T10:34:59;6.20;99.90
19680;DHT22;9989;48.962;9.182;2023-02-05T10:40:17;6.30;99.90
19680;DHT22;9989;48.962;9.182;2023-02-05T10:42:51;6.20;99.90
19680;DHT22;9989;48.962;9.182;2023-02-05T10:45:22;6.20;99.90
19680;DHT22;9989;48.962;9.182;2023-02-05T10:52:46;6.30;99.90
19680;DHT22;9989;48.962;9.182;2023-02-05T10:55:12;6.30;99.90
19680;DHT22;9989;48.962;9.182;2023-02-05T10:57:38;6.40;99.90
19680;DHT22;9989;48.962;9.182;2023-02-05T11:00:13;6.40;99.90
19680;DHT22;9989;48.962;9.182;2023-02-05T11:02:41;6.40;99.90
19680;DHT22;9989;48.962;9.182;2023-02-05T11:05:30;6.40;99.90
19680;DHT22;9989;48.962;9.182;2023-02-05T11:07:58;6.50;99.90
19680;DHT22;9989;48.962;9.182;2023-02-05T11:10:27;6.50;99.90
19680;DHT22;9989;48.962;9.182;2023-02-05T11:13:17;6.50;99.90
19680;DHT22;9989;48.962;9.182;2023-02-05T11:15:55;6.50;99.90
19680;DHT22;9989;48.962;9.182;2023-02-05T11:18:23;6.50;99.90
19680;DHT22;9989;48.962;9.182;2023-02-05T11:20:56;6.50;99.90
19680;DHT22;9989;48.962;9.182;2023-02-05T11:23:23;6.50;99.90
19680;DHT22;9989;48.962;9.182;2023-02-05T11:25:54;6.50;99.90
19680;DHT22;9989;48.962;9.182;2023-02-05T11:28:23;6.50;99.90
19680;DHT22;9989;48.962;9.182;2023-02-05T11:30:50;6.50;99.90
19680;DHT22;9989;48.962;9.182;2023-02-05T11:35:49;6.60;99.90
19680;DHT22;9989;48.962;9.182;2023-02-05T11:41:32;6.70;99.90
19680;DHT22;9989;48.962;9.182;2023-02-05T11:44:21;6.80;99.90
19680;DHT22;9989;48.962;9.182;2023-02-05T11:46:49;6.80;99.90
19680;DHT22;9989;48.962;9.182;2023-02-05T11:49:34;6.80;99.90
19680;DHT22;9989;48.962;9.182;2023-02-05T11:52:10;6.80;99.90
19680;DHT22;9989;48.962;9.182;2023-02-05T11:54:37;6.80;99.90
19680;DHT22;9989;48.962;9.182;2023-02-05T11:59:39;6.80;99.90
19680;DHT22;9989;48.962;9.182;2023-02-05T12:05:26;6.80;99.90
19680;DHT22;9989;48.962;9.182;2023-02-05T12:24:37;6.70;99.90
19680;DHT22;9989;48.962;9.182;2023-02-05T12:43:25;6.90;99.90
19680;DHT22;9989;48.962;9.182;2023-02-05T12:49:00;6.80;99.90
19680;DHT22;9989;48.962;9.182;2023-02-05T12:51:40;6.70;99.90
19680;DHT22;9989;48.962;9.182;2023-02-05T12:54:24;6.70;99.90
19680;DHT22;9989;48.962;9.182;2023-02-05T12:57:04;6.70;99.90
19680;DHT22;9989;48.962;9.182;2023-02-05T13:05:03;6.70;99.90
19680;DHT22;9989;48.962;9.182;2023-02-05T13:07:37;6.70;99.90
19680;DHT22;9989;48.962;9.182;2023-02-05T13:10:11;6.80;99.90
19680;DHT22;9989;48.962;9.182;2023-02-05T13:12:41;6.80;99.90
19680;DHT22;9989;48.962;9.182;2023-02-05T13:15:20;6.80;99.90
19680;DHT22;9989;48.962;9.182;2023-02-05T13:20:34;6.90;99.90
19680;DHT22;9989;48.962;9.182;2023-02-05T13:23:20;6.80;99.90
19680;DHT22;9989;48.962;9.182;2023-02-05T13:26:06;6.90;99.90
19680;DHT22;9989;48.962;9.182;2023-02-05T13:29:10;6.90;99.90
19680;DHT22;9989;48.962;9.182;2023-02-05T13:31:39;6.80;99.90
19680;DHT22;9989;48.962;9.182;2023-02-05T13:34:10;6.80;99.90
19680;DHT22;9989;48.962;9.182;2023-02-05T13:45:25;6.70;99.90
19680;DHT22;9989;48.962;9.182;2023-02-05T13:53:37;6.60;99.90
19680;DHT22;9989;48.962;9.182;2023-02-05T13:58:50;6.60;99.90
19680;DHT22;9989;48.962;9.182;2023-02-05T14:01:24;6.60;99.90
19680;DHT22;9989;48.962;9.182;2023-02-05T14:04:05;6.50;99.90
19680;DHT22;9989;48.962;9.182;2023-02-05T14:06:34;6.50;99.90
19680;DHT22;9989;48.962;9.182;2023-02-05T14:09:42;6.50;99.90
19680;DHT22;9989;48.962;9.182;2023-02-05T14:12:11;6.40;99.90
19680;DHT22;9989;48.962;9.182;2023-02-05T14:14:39;6.40;99.90
19680;DHT22;9989;48.962;9.182;2023-02-05T14:19:57;6.30;99.90
19680;DHT22;9989;48.962;9.182;2023-02-05T14:22:41;6.30;99.90
19680;DHT22;9989;48.962;9.182;2023-02-05T14:38:54;6.30;99.90
19680;DHT22;9989;48.962;9.182;2023-02-05T14:41:29;6.30;99.90
19680;DHT22;9989;48.962;9.182;2023-02-05T14:44:05;6.30;99.90
19680;DHT22;9989;48.962;9.182;2023-02-05T14:48:58;6.40;99.90
19680;DHT22;9989;48.962;9.182;2023-02-05T14:51:35;6.30;99.90
19680;DHT22;9989;48.962;9.182;2023-02-05T14:56:41;6.40;99.90
19680;DHT22;9989;48.962;9.182;2023-02-05T14:59:37;6.40;99.90
19680;DHT22;9989;48.962;9.182;2023-02-05T15:05:35;6.40;99.90
19680;DHT22;9989;48.962;9.182;2023-02-05T15:22:34;6.40;99.90
19680;DHT22;9989;48.962;9.182;2023-02-05T15:25:03;6.40;99.90
19680;DHT22;9989;48.962;9.182;2023-02-05T15:27:45;6.30;99.90
19680;DHT22;9989;48.962;9.182;2023-02-05T15:30:17;6.30;99.90
19680;DHT22;9989;48.962;9.182;2023-02-05T15:33:00;6.30;99.90
19680;DHT22;9989;48.962;9.182;2023-02-05T15:35:27;6.30;99.90
19680;DHT22;9989;48.962;9.182;2023-02-05T15:38:01;6.20;99.90
19680;DHT22;9989;48.962;9.182;2023-02-05T15:40:30;6.20;99.90
19680;DHT22;9989;48.962;9.182;2023-02-05T15:42:58;6.20;99.90
19680;DHT22;9989;48.962;9.182;2023-02-05T15:45:31;6.10;99.90
19680;DHT22;9989;48.962;9.182;2023-02-05T15:48:05;6.10;99.90
19680;DHT22;9989;48.962;9.182;2023-02-05T15:50:33;6.20;99.90
19680;DHT22;9989;48.962;9.182;2023-02-05T15:52:59;6.10;99.90
19680;DHT22;9989;48.962;9.182;2023-02-05T15:55:26;6.10;99.90
19680;DHT22;9989;48.962;9.182;2023-02-05T15:58:05;6.10;99.90
19680;DHT22;9989;48.962;9.182;2023-02-05T16:00:33;6.10;99.90
19680;DHT22;9989;48.962;9.182;2023-02-05T16:03:01;6.10;99.90
19680;DHT22;9989;48.962;9.182;2023-02-05T16:05:29;6.20;99.90
19680;DHT22;9989;48.962;9.182;2023-02-05T16:07:55;6.20;99.90
19680;DHT22;9989;48.962;9.182;2023-02-05T16:10:31;6.20;99.90
19680;DHT22;9989;48.962;9.182;2023-02-05T16:12:58;6.30;99.90
19680;DHT22;9989;48.962;9.182;2023-02-05T16:15:29;6.30;99.90
19680;DHT22;9989;48.962;9.182;2023-02-05T16:17:56;6.30;99.90
19680;DHT22;9989;48.962;9.182;2023-02-05T16:20:34;6.30;99.90
19680;DHT22;9989;48.962;9.182;2023-02-05T16:23:04;6.30;99.90
19680;DHT22;9989;48.962;9.182;2023-02-05T16:28:14;6.30;99.90
19680;DHT22;9989;48.962;9.182;2023-02-05T16:30:42;6.30;99.90
19680;DHT22;9989;48.962;9.182;2023-02-05T16:33:41;6.30;99.90
19680;DHT22;9989;48.962;9.182;2023-02-05T16:36:11;6.30;99.90
19680;DHT22;9989;48.962;9.182;2023-02-05T16:38:39;6.20;99.90
19680;DHT22;9989;48.962;9.182;2023-02-05T16:43:54;6.20;99.90
19680;DHT22;9989;48.962;9.182;2023-02-05T16:46:23;6.20;99.90
19680;DHT22;9989;48.962;9.182;2023-02-05T16:48:52;6.20;99.90
19680;DHT22;9989;48.962;9.182;2023-02-05T16:51:38;6.20;99.90
19680;DHT22;9989;48.962;9.182;2023-02-05T16:54:25;6.20;99.90
19680;DHT22;9989;48.962;9.182;2023-02-05T16:57:02;6.20;99.90
19680;DHT22;9989;48.962;9.182;2023-02-05T16:59:34;6.20;99.90
19680;DHT22;9989;48.962;9.182;2023-02-05T17:02:04;6.20;99.90
19680;DHT22;9989;48.962;9.182;2023-02-05T17:04:35;6.20;99.90
19680;DHT22;9989;48.962;9.182;2023-02-05T17:07:04;6.20;99.90
19680;DHT22;9989;48.962;9.182;2023-02-05T17:09:38;6.20;99.90
19680;DHT22;9989;48.962;9.182;2023-02-05T17:12:23;6.20;99.90
19680;DHT22;9989;48.962;9.182;2023-02-05T17:14:56;6.20;99.90
19680;DHT22;9989;48.962;9.182;2023-02-05T17:17:22;6.20;99.90
19680;DHT22;9989;48.962;9.182;2023-02-05T17:25:38;6.20;99.90
19680;DHT22;9989;48.962;9.182;2023-02-05T17:28:06;6.20;99.90
19680;DHT22;9989;48.962;9.182;2023-02-05T17:30:33;6.20;99.90
19680;DHT22;9989;48.962;9.182;2023-02-05T17:32:58;6.20;99.90
19680;DHT22;9989;48.962;9.182;2023-02-05T17:35:24;6.20;99.90
19680;DHT22;9989;48.962;9.182;2023-02-05T17:37:51;6.20;99.90
19680;DHT22;9989;48.962;9.182;2023-02-05T17:40:17;6.20;99.90
19680;DHT22;9989;48.962;9.182;2023-02-05T17:42:46;6.20;99.90
19680;DHT22;9989;48.962;9.182;2023-02-05T17:45:23;6.20;99.90
19680;DHT22;9989;48.962;9.182;2023-02-05T17:47:50;6.20;99.90
19680;DHT22;9989;48.962;9.182;2023-02-05T17:50:16;6.20;99.90
19680;DHT22;9989;48.962;9.182;2023-02-05T17:52:43;6.20;99.90
19680;DHT22;9989;48.962;9.182;2023-02-05T17:55:17;6.20;99.90
19680;DHT22;9989;48.962;9.182;2023-02-05T17:57:44;6.20;99.90
19680;DHT22;9989;48.962;9.182;2023-02-05T18:02:37;6.10;99.90
19680;DHT22;9989;48.962;9.182;2023-02-05T18:05:03;6.10;99.90
19680;DHT22;9989;48.962;9.182;2023-02-05T18:07:39;6.10;99.90
19680;DHT22;9989;48.962;9.182;2023-02-05T18:10:06;6.10;99.90
19680;DHT22;9989;48.962;9.182;2023-02-05T18:12:32;6.00;99.90
19680;DHT22;9989;48.962;9.182;2023-02-05T18:14:58;6.00;99.90
19680;DHT22;9989;48.962;9.182;2023-02-05T18:17:23;6.00;99.90
19680;DHT22;9989;48.962;9.182;2023-02-05T18:19:49;5.90;99.90
19680;DHT22;9989;48.962;9.182;2023-02-05T18:22:15;5.90;99.90
19680;DHT22;9989;48.962;9.182;2023-02-05T18:24:40;5.80;99.90
19680;DHT22;9989;48.962;9.182;2023-02-05T18:27:07;5.80;99.90
19680;DHT22;9989;48.962;9.182;2023-02-05T18:29:34;5.80;99.90
19680;DHT22;9989;48.962;9.182;2023-02-05T18:32:00;5.70;99.90
19680;DHT22;9989;48.962;9.182;2023-02-05T18:34:27;5.70;99.90
19680;DHT22;9989;48.962;9.182;2023-02-05T18:36:53;5.70;99.90
19680;DHT22;9989;48.962;9.182;2023-02-05T18:39:18;5.70;99.90
19680;DHT22;9989;48.962;9.182;2023-02-05T18:41:44;5.60;99.90
19680;DHT22;9989;48.962;9.182;2023-02-05T18:44:10;5.60;99.90
19680;DHT22;9989;48.962;9.182;2023-02-05T18:46:36;5.60;99.90
19680;DHT22;9989;48.962;9.182;2023-02-05T18:49:02;5.60;99.90
19680;DHT22;9989;48.962;9.182;2023-02-05T18:51:30;5.50;99.90
19680;DHT22;9989;48.962;9.182;2023-02-05T18:53:56;5.60;99.90
19680;DHT22;9989;48.962;9.182;2023-02-05T18:56:26;5.50;99.90
19680;DHT22;9989;48.962;9.182;2023-02-05T18:58:54;5.50;99.90
19680;DHT22;9989;48.962;9.182;2023-02-05T19:01:23;5.50;99.90
19680;DHT22;9989;48.962;9.182;2023-02-05T19:03:50;5.40;99.90
19680;DHT22;9989;48.962;9.182;2023-02-05T19:06:19;5.40;99.90
19680;DHT22;9989;48.962;9.182;2023-02-05T19:08:46;5.30;99.90
19680;DHT22;9989;48.962;9.182;2023-02-05T19:11:21;5.30;99.90
19680;DHT22;9989;48.962;9.182;2023-02-05T19:13:54;5.30;99.90
19680;DHT22;9989;48.962;9.182;2023-02-05T19:16:20;5.30;99.90
19680;DHT22;9989;48.962;9.182;2023-02-05T19:18:45;5.30;99.90
19680;DHT22;9989;48.962;9.182;2023-02-05T19:21:16;5.30;99.90